Arctic - Eastern Arctic: Past 24 Hour Conditions

 

Hall Beach Airport

09:00 AM EDT 21 October 2014
This table is a summary of hourly weather conditions for the past 24 hours.
Date / Time
(EDT)
Wind(knots) Conditions Visibility(km) Pressure(kPa) Air tempC) Relative humidity(%) Dew pointC) Wind Chill
21 October 2014
9:00 NW 16 Drifting Snow 24 100.9 -16 89 -18 -28
8:00 NW 15 Drifting Snow 24 100.9 -16 88 -18 -27
7:00 WNW 16 Clear 16 101.0 -15 88 -17 -27
6:00 NW 16 Clear 16 101.0 -15 87 -17 -26
5:00 NW 16 Clear 16 100.9 -14 88 -15 -25
4:00 NW 18 Clear 16 101.0 -13 90 -14 -24
3:00 NW 16 Clear 16 100.9 -12 91 -14 -23
2:00 NW 17 Clear 16 100.9 -12 91 -13 -22
1:00 NW 21 Clear 16 100.8 -11 91 -12 -22
0:00 NW 18 Partly Cloudy 16 100.8 -9 93 -10 -18
20 October 2014
23:00 NW 22 Cloudy 11 100.7 -8 94 -8 -18
22:00 NW 23 gust 28 Light Snow 5 100.7 -7 94 -8 -17
21:00 NW 19 gust 24 Cloudy 16 100.7 -7 95 -8 -16
20:00 NW 20 Light Snow 19 100.7 -6 96 -6 -15
19:00 NW 20 gust 25 Light Snow 13 100.6 -5 97 -5 -13
18:00 NW 19 Drifting Snow 19 100.6 -4 98 -5 -13
17:00 NNW 21 Light Freezing Drizzle 19 100.5 -4 99 -4 -12
16:00 NNW 18 Light Snow 13 100.5 -3 99 -3 -10
15:00 NNW 15 Light Freezing Drizzle 15 100.4 -2 99 -2 -9
14:00 NNW 14 Light Freezing Drizzle 0.4 100.4 -2 99 -2 -9
13:00 NW 10 Ice Fog 0.2 100.4 -3 99 -3 -9
12:00 NNW 6 Light Snow 0.2 100.3 -4 99 -4 -9
11:00 NNW 8 Light Snow 2 100.3 -6 98 -6 -12
10:00 WNW 3 Light Snow 2 100.3 -3 99 -3 -5
9:00 S 3 Light Snow 6 100.3 -2 99 -2 -4
 
Map of Arctic - Eastern Arctic marine weather areas Baker Lake Airport Chesterfield Inlet Airport Coral Harbour Airport Gjoa Haven Airport Kugaaruk Airport Rankin Inlet Airport Shepherd Bay Airport Whale Cove Airport Arctic Bay Brevoort Island Qikiqtarjuaq Airport Cape Dorset Airport Cape Dyer Cape Hooper Clyde Airport Grise Fiord Airport Hall Beach Airport Igloolik Airport Iqaluit Airport Longstaff Bluff Pangnirtung Airport Pond Inlet Airport Repulse Bay Airport Resolute Airport Resolution Island Rowley Island Airport Taloyoak Airport Wager Bay Akulivik Airport Ivujivik Airport Puvirnituq Airport Kangiqsujuaq Airport Kangirsuk Airport Quaqtaq Airport Tasiujaq Airport Cape Kakkiviak Cape Kiglapait Nain Airport Saglek Cape Mercy Kimmirut Airport Aupaluk Airport Salluit Airport Kangiqsualujjuaq Airport Fort Ross
Legend: buoyBuoy land stationLand Station